Flight Track Log - Related Links

Times and Time Zones

All times are in EDT time to prevent confusion due to time zone crossing. See the 9Y-BGI flight status page for this flight to view local times or setup timezone preferences in your user account.

Time Position Orientation Groundspeed Altitude Reporting Facility
EDT Latitude Longitude Course Direction KTS MPH feet Rate Location/Type
Fri 10:38:00 AM 18.3146 -77.5362 118° Southeast  Level Estimated
Fri 10:39:00 AM 18.2766 -77.4608 118° Southeast  Level Estimated
Fri 10:40:00 AM 18.2387 -77.3855 118° Southeast  Level Estimated
Fri 10:41:00 AM 18.2007 -77.3102 118° Southeast  Level Estimated
Fri 10:42:00 AM 18.1627 -77.2350 118° Southeast  Level Estimated
Fri 10:43:00 AM 18.1246 -77.1598 118° Southeast  Level Estimated
Fri 10:44:00 AM 18.0866 -77.0846 118° Southeast  Level Estimated
Fri 10:45:00 AM 18.0485 -77.0095 118° Southeast  Level Estimated
Fri 10:46:00 AM 18.0103 -76.9344 118° Southeast  Level Estimated
Fri 10:47:00 AM 17.9722 -76.8593 118° Southeast  Level Estimated
Fri 10:48:00 AM 17.9357 -76.7875 118° Southeast  Level Estimated
Fri 10:49:00 AM 17.9357 -76.7875 180° South  Level Estimated
Fri 10:50:00 AM 17.9357 -76.7875 180° South  Level Estimated
Fri 10:51:00 AM 17.9357 -76.7875 180° South  Level Estimated
Fri 10:52:00 AM 17.9357 -76.7875 180° South  Level Estimated
Fri 10:53:00 AM 17.9357 -76.7875 180° South  Level Estimated
Fri 10:54:00 AM 17.9357 -76.7875 180° South  Level Estimated
Fri 10:55:00 AM 17.9357 -76.7875 180° South  Level Estimated
Fri 10:56:00 AM 17.9357 -76.7875 180° South  Level Estimated
Fri 10:57:00 AM 17.9357 -76.7875 180° South  Level Estimated
Fri 10:58:00 AM 17.9357 -76.7875 180° South  Level Estimated
Fri 10:59:00 AM 17.9357 -76.7875 180° South  Level Estimated

Login

Don't have an account? Register now (free) for customized features, flight alerts, and more!